createdAt,value
2017-07-22T22:15:12.211Z,98621.80
2017-07-22T22:17:43.730Z,98631.71
2017-07-22T22:20:15.383Z,98632.37
2017-07-22T22:22:46.779Z,98628.00
2017-07-22T22:25:22.157Z,98633.67
2017-07-22T22:27:53.528Z,98635.11
2017-07-22T22:30:25.371Z,98621.75
2017-07-22T22:32:56.756Z,98636.73
2017-07-22T22:35:28.129Z,98637.80
2017-07-22T22:37:59.460Z,98631.92
2017-07-22T22:40:31.305Z,98635.80
2017-07-22T22:43:02.717Z,98620.81
2017-07-22T22:45:35.422Z,98615.01
2017-07-22T22:48:06.805Z,98614.23
2017-07-22T22:50:38.277Z,98608.70
2017-07-22T22:53:10.579Z,98610.58
2017-07-22T22:55:42.795Z,98605.36
2017-07-22T22:58:14.353Z,98609.73
2017-07-22T23:00:46.889Z,98603.72
2017-07-22T23:03:20.964Z,98609.66
2017-07-22T23:05:52.982Z,98606.41
2017-07-22T23:08:25.964Z,98594.89
2017-07-22T23:10:57.552Z,98601.75
2017-07-22T23:13:29.047Z,98593.25
2017-07-22T23:16:00.580Z,98587.36
2017-07-22T23:18:31.936Z,98566.06
2017-07-22T23:21:03.842Z,98586.78
2017-07-22T23:23:35.699Z,98581.92
2017-07-22T23:26:06.854Z,98576.33
2017-07-22T23:28:38.413Z,98570.44
2017-07-22T23:31:09.930Z,98564.56
2017-07-22T23:33:41.317Z,98566.92
2017-07-22T23:36:12.496Z,98565.52
2017-07-22T23:38:44.186Z,98564.91
2017-07-22T23:41:15.756Z,98561.16
2017-07-22T23:43:47.331Z,98564.09
2017-07-22T23:46:21.295Z,98570.03
2017-07-22T23:48:53.341Z,98560.80
2017-07-22T23:51:24.852Z,98561.08
2017-07-22T23:53:56.227Z,98572.34
2017-07-22T23:56:28.234Z,98568.21
2017-07-22T23:59:00.574Z,98568.74
